createdAt,value
2018-10-01T00:00:45.864Z,25.27
2018-10-01T00:03:14.053Z,25.00
2018-10-01T00:05:42.134Z,25.40
2018-10-01T00:08:10.317Z,25.50
2018-10-01T00:10:38.459Z,25.20
2018-10-01T00:13:06.584Z,25.27
2018-10-01T00:15:34.704Z,25.00
2018-10-01T00:18:02.848Z,24.57
2018-10-01T00:20:36.429Z,25.80
2018-10-01T00:23:04.593Z,24.80
2018-10-01T00:25:32.707Z,24.47
2018-10-01T00:28:00.793Z,24.70
2018-10-01T00:30:28.897Z,24.20
2018-10-01T00:32:57.108Z,25.10
2018-10-01T00:35:25.240Z,24.87
2018-10-01T00:37:53.421Z,25.40
2018-10-01T00:40:21.573Z,25.47
2018-10-01T00:42:49.645Z,24.27
2018-10-01T00:45:17.789Z,25.53
2018-10-01T00:47:45.920Z,23.87
2018-10-01T00:50:14.138Z,23.90
2018-10-01T00:52:42.287Z,24.40
2018-10-01T00:55:10.472Z,23.30
2018-10-01T00:57:38.596Z,24.70
2018-10-01T01:00:06.711Z,24.10
2018-10-01T01:02:34.850Z,24.07
2018-10-01T01:05:03.006Z,23.83
2018-10-01T01:07:31.097Z,24.73
2018-10-01T01:09:59.298Z,23.60
2018-10-01T01:12:27.484Z,23.40
2018-10-01T01:14:55.600Z,24.33
2018-10-01T01:17:24.023Z,22.23
2018-10-01T01:19:52.172Z,22.53
2018-10-01T01:22:20.345Z,23.80
2018-10-01T01:24:48.520Z,23.53
2018-10-01T01:27:16.717Z,23.43
2018-10-01T01:29:44.855Z,24.23
2018-10-01T01:32:12.959Z,22.40
2018-10-01T01:34:41.124Z,23.43
2018-10-01T01:37:09.272Z,22.77
2018-10-01T01:39:40.452Z,23.37
2018-10-01T01:42:08.630Z,23.23
2018-10-01T01:44:36.809Z,23.27
2018-10-01T01:47:05.168Z,23.50
2018-10-01T01:49:33.380Z,22.90
2018-10-01T01:52:01.736Z,22.03
2018-10-01T01:54:29.905Z,22.60
2018-10-01T01:56:58.147Z,22.60
2018-10-01T01:59:26.234Z,23.00
2018-10-01T02:01:54.345Z,22.87
2018-10-01T02:04:22.481Z,22.80
2018-10-01T02:06:50.543Z,22.33
2018-10-01T02:09:18.637Z,21.90
2018-10-01T02:11:46.812Z,23.00
2018-10-01T02:14:15.024Z,22.97
2018-10-01T02:16:43.303Z,21.73
2018-10-01T02:19:11.438Z,21.93
2018-10-01T02:21:39.761Z,22.10
2018-10-01T02:24:07.892Z,23.07
2018-10-01T02:26:36.083Z,21.73
2018-10-01T02:29:04.261Z,21.60
2018-10-01T02:31:32.442Z,23.30
2018-10-01T02:34:00.563Z,23.37
2018-10-01T02:36:28.689Z,22.33
2018-10-01T02:38:57.853Z,22.20
2018-10-01T02:41:26.060Z,23.47
2018-10-01T02:43:54.312Z,23.33
2018-10-01T02:46:22.525Z,21.50
2018-10-01T02:48:50.638Z,23.03
2018-10-01T02:51:18.765Z,22.67
2018-10-01T02:53:52.564Z,21.20
2018-10-01T02:56:20.741Z,22.40
2018-10-01T02:58:48.864Z,21.93
2018-10-01T03:01:16.977Z,21.23
2018-10-01T03:03:45.101Z,22.30
2018-10-01T03:06:13.207Z,20.23
2018-10-01T03:08:41.376Z,20.62
2018-10-01T03:11:09.569Z,20.53
2018-10-01T03:13:37.753Z,21.10
2018-10-01T03:16:05.975Z,20.40
2018-10-01T03:18:34.093Z,20.23
2018-10-01T03:21:02.282Z,21.57
2018-10-01T03:23:30.440Z,21.33
2018-10-01T03:25:58.647Z,20.45
2018-10-01T03:28:26.768Z,21.60
2018-10-01T03:30:54.916Z,22.75
2018-10-01T03:33:23.008Z,20.47
2018-10-01T03:35:51.227Z,20.10
2018-10-01T03:38:19.393Z,20.23
2018-10-01T03:40:47.560Z,20.07
2018-10-01T03:43:15.734Z,20.10
2018-10-01T03:45:43.892Z,20.02
2018-10-01T03:48:12.088Z,20.23
2018-10-01T03:50:40.263Z,19.70
2018-10-01T03:53:08.642Z,20.67
2018-10-01T03:55:36.785Z,19.70
2018-10-01T03:58:04.999Z,20.25
2018-10-01T04:00:33.169Z,21.00
2018-10-01T04:03:01.424Z,21.33
2018-10-01T04:05:29.472Z,21.27
2018-10-01T04:07:57.577Z,21.48
2018-10-01T04:10:25.765Z,21.03
2018-10-01T04:12:53.895Z,21.85
2018-10-01T04:15:22.113Z,19.12
2018-10-01T04:17:50.341Z,20.35
2018-10-01T04:20:18.551Z,19.93
2018-10-01T04:22:46.763Z,20.50
2018-10-01T04:25:14.875Z,20.50
2018-10-01T04:27:42.944Z,19.70
2018-10-01T04:30:12.028Z,20.20
2018-10-01T04:32:40.124Z,19.83
2018-10-01T04:35:08.517Z,20.40
2018-10-01T04:37:36.860Z,20.57
2018-10-01T04:40:05.213Z,20.10
2018-10-01T04:42:33.325Z,21.50
2018-10-01T04:45:01.396Z,20.40
2018-10-01T04:47:29.524Z,20.47
2018-10-01T04:49:57.656Z,21.40
2018-10-01T04:52:25.841Z,21.40
2018-10-01T04:54:54.004Z,20.63
2018-10-01T04:57:22.189Z,19.10
2018-10-01T04:59:50.555Z,21.63
2018-10-01T05:02:18.728Z,21.10
2018-10-01T05:04:47.120Z,20.53
2018-10-01T05:07:15.389Z,21.00
2018-10-01T05:09:43.572Z,20.27
2018-10-01T05:12:11.724Z,21.40
2018-10-01T05:14:39.822Z,21.53
2018-10-01T05:17:07.892Z,20.40
2018-10-01T05:19:36.058Z,20.80
2018-10-01T05:22:04.245Z,21.50
2018-10-01T05:24:32.993Z,20.83
2018-10-01T05:27:01.147Z,21.47
2018-10-01T05:29:29.301Z,21.33
2018-10-01T05:31:57.466Z,21.60
2018-10-01T05:34:25.799Z,21.90
2018-10-01T05:36:53.928Z,22.70
2018-10-01T05:39:22.097Z,21.80
2018-10-01T05:41:50.273Z,21.87
2018-10-01T05:44:18.431Z,21.93
2018-10-01T05:46:46.621Z,21.57
2018-10-01T05:49:14.819Z,21.70
2018-10-01T05:51:42.947Z,22.43
2018-10-01T05:54:11.137Z,22.30
2018-10-01T05:56:39.277Z,22.30
2018-10-01T05:59:07.393Z,22.50
2018-10-01T06:01:35.557Z,22.77
2018-10-01T06:04:03.727Z,24.03
2018-10-01T06:06:31.887Z,23.17
2018-10-01T06:09:00.066Z,22.40
2018-10-01T06:11:28.260Z,23.60
2018-10-01T06:13:56.461Z,23.00
2018-10-01T06:16:24.548Z,26.50
2018-10-01T06:18:52.654Z,27.70
2018-10-01T06:21:20.800Z,29.37
2018-10-01T06:23:48.970Z,26.10
2018-10-01T06:26:17.101Z,23.80
2018-10-01T06:28:45.289Z,23.67
2018-10-01T06:31:13.463Z,22.93
2018-10-01T06:33:41.620Z,24.73
2018-10-01T06:37:34.345Z,24.20
2018-10-01T06:40:02.535Z,24.47
2018-10-01T06:42:30.714Z,24.70
2018-10-01T06:44:58.969Z,24.10
2018-10-01T06:47:27.156Z,23.43
2018-10-01T06:49:55.409Z,25.50
2018-10-01T06:52:23.770Z,23.30
2018-10-01T06:54:51.921Z,23.80
2018-10-01T06:57:20.135Z,24.50
2018-10-01T06:59:48.309Z,25.00
2018-10-01T07:02:16.417Z,24.10
2018-10-01T07:04:44.603Z,28.13
2018-10-01T07:07:12.950Z,31.37
2018-10-01T07:09:41.046Z,25.10
2018-10-01T07:12:09.242Z,25.13
2018-10-01T07:14:37.419Z,24.77
2018-10-01T07:17:05.808Z,25.20
2018-10-01T07:19:33.938Z,25.40
2018-10-01T07:22:02.311Z,26.57
2018-10-01T07:24:30.524Z,26.70
2018-10-01T07:26:58.689Z,24.60
2018-10-01T07:29:26.864Z,26.10
2018-10-01T07:31:55.058Z,26.00
2018-10-01T07:34:23.201Z,25.33
2018-10-01T07:36:51.410Z,27.70
2018-10-01T07:39:19.553Z,27.47
2018-10-01T07:41:47.680Z,27.70
2018-10-01T07:44:16.361Z,27.93
2018-10-01T07:46:44.510Z,27.87
2018-10-01T07:49:12.714Z,26.83
2018-10-01T07:51:40.852Z,26.40
2018-10-01T07:54:09.215Z,26.03
2018-10-01T07:56:37.281Z,26.43
2018-10-01T07:59:05.960Z,26.60
2018-10-01T08:01:34.063Z,26.10
2018-10-01T08:04:02.237Z,28.27
2018-10-01T08:06:30.468Z,26.67
2018-10-01T08:08:58.633Z,27.73
2018-10-01T08:11:26.757Z,27.77
2018-10-01T08:13:54.973Z,28.07
2018-10-01T08:16:23.092Z,27.90
2018-10-01T08:18:51.188Z,28.20
2018-10-01T08:21:19.400Z,27.10
2018-10-01T08:23:47.813Z,27.30
2018-10-01T08:26:15.956Z,26.40
2018-10-01T08:28:44.133Z,25.63
2018-10-01T08:31:12.360Z,27.23
2018-10-01T08:33:40.636Z,27.37
2018-10-01T08:36:08.838Z,27.87
2018-10-01T08:38:37.372Z,26.20
2018-10-01T08:41:05.464Z,26.30
2018-10-01T08:43:33.544Z,26.93
2018-10-01T08:46:01.749Z,26.97
2018-10-01T08:48:30.924Z,26.23
2018-10-01T08:51:07.504Z,27.20
2018-10-01T08:54:40.771Z,26.83
2018-10-01T08:57:08.864Z,27.10
2018-10-01T08:59:37.003Z,26.63
2018-10-01T09:02:05.225Z,26.10
2018-10-01T09:04:33.904Z,26.60
2018-10-01T09:07:02.749Z,25.80
2018-10-01T09:09:30.882Z,27.30
2018-10-01T09:11:59.071Z,26.93
2018-10-01T09:14:28.384Z,26.70
2018-10-01T09:16:56.541Z,26.77
2018-10-01T09:19:24.789Z,26.90
2018-10-01T09:21:52.956Z,27.13
2018-10-01T09:24:21.165Z,26.37
2018-10-01T09:26:49.359Z,27.00
2018-10-01T09:29:18.565Z,26.70
2018-10-01T09:31:46.692Z,27.73
2018-10-01T09:34:14.905Z,27.50
2018-10-01T09:36:43.057Z,26.03
2018-10-01T09:39:11.713Z,30.30
2018-10-01T09:41:40.480Z,30.53
2018-10-01T09:44:08.929Z,27.63
2018-10-01T09:46:37.137Z,27.50
2018-10-01T09:49:05.329Z,26.87
2018-10-01T10:02:56.370Z,26.50
2018-10-01T10:05:24.765Z,32.83
2018-10-01T10:07:53.154Z,25.90
2018-10-01T10:10:21.478Z,27.77
2018-10-01T10:12:49.853Z,27.80
2018-10-01T10:15:18.279Z,27.20
2018-10-01T10:17:46.590Z,28.33
2018-10-01T10:20:15.108Z,28.47
2018-10-01T10:22:43.493Z,27.50
2018-10-01T10:25:11.866Z,28.50
2018-10-01T10:27:40.286Z,28.60
2018-10-01T10:30:10.076Z,26.97
2018-10-01T10:32:38.623Z,26.90
2018-10-01T10:35:07.177Z,29.17
2018-10-01T10:37:35.454Z,28.40
2018-10-01T10:40:03.884Z,28.60
2018-10-01T10:42:32.214Z,29.47
2018-10-01T10:45:00.534Z,28.60
2018-10-01T10:47:28.901Z,29.00
2018-10-01T10:49:57.333Z,28.70
2018-10-01T10:52:25.651Z,28.63
2018-10-01T10:54:54.022Z,29.20
2018-10-01T10:57:22.445Z,28.20
2018-10-01T10:59:50.810Z,27.80
2018-10-01T11:02:19.169Z,28.63
2018-10-01T11:04:47.551Z,27.77
2018-10-01T11:07:15.991Z,28.43
2018-10-01T11:09:44.290Z,30.43
2018-10-01T11:12:12.686Z,28.67
2018-10-01T11:14:41.157Z,29.27
2018-10-01T11:19:47.682Z,28.63
2018-10-01T11:22:16.101Z,28.20
2018-10-01T11:24:44.458Z,28.70
2018-10-01T11:27:12.870Z,29.27
2018-10-01T11:29:41.149Z,30.00
2018-10-01T11:32:09.610Z,29.53
2018-10-01T11:34:38.068Z,28.50
2018-10-01T11:37:06.351Z,28.20
2018-10-01T11:39:34.765Z,29.23
2018-10-01T11:42:03.353Z,29.33
2018-10-01T11:44:31.806Z,28.10
2018-10-01T11:47:00.128Z,29.33
2018-10-01T11:49:28.590Z,29.40
2018-10-01T11:51:57.458Z,28.77
2018-10-01T11:54:26.065Z,30.10
2018-10-01T11:56:54.537Z,27.77
2018-10-01T11:59:22.899Z,29.43
2018-10-01T12:01:51.254Z,30.20
2018-10-01T12:04:19.641Z,29.00
2018-10-01T12:06:48.038Z,28.50
2018-10-01T12:09:16.491Z,29.13
2018-10-01T12:11:44.810Z,28.50
2018-10-01T12:14:13.141Z,29.97
2018-10-01T12:16:41.562Z,30.17
2018-10-01T12:19:10.251Z,30.70
2018-10-01T12:21:38.796Z,31.27
2018-10-01T12:24:07.843Z,31.67
2018-10-01T12:26:36.261Z,30.63
2018-10-01T12:29:04.726Z,31.70
2018-10-01T12:31:33.382Z,30.63
2018-10-01T12:34:01.812Z,30.73
2018-10-01T12:36:30.237Z,32.80
2018-10-01T12:38:58.625Z,31.73
2018-10-01T12:41:26.966Z,30.90
2018-10-01T12:43:55.323Z,29.90
2018-10-01T12:46:23.722Z,30.90
2018-10-01T12:48:52.336Z,32.33
2018-10-01T12:51:20.858Z,32.80
2018-10-01T12:53:49.206Z,31.10
2018-10-01T12:56:17.614Z,31.47
2018-10-01T12:58:46.107Z,33.30
2018-10-01T13:01:14.634Z,32.83
2018-10-01T13:03:44.659Z,30.50
2018-10-01T13:06:13.171Z,31.40
2018-10-01T13:08:41.569Z,30.37
2018-10-01T13:11:10.013Z,32.50
2018-10-01T13:13:38.645Z,29.70
2018-10-01T13:16:07.081Z,29.70
2018-10-01T13:18:35.718Z,29.90
2018-10-01T13:21:04.243Z,29.23
2018-10-01T13:23:32.701Z,28.30
2018-10-01T13:26:01.376Z,27.20
2018-10-01T13:28:29.882Z,29.80
2018-10-01T13:30:59.241Z,30.07
2018-10-01T13:33:29.805Z,30.17
2018-10-01T13:35:58.281Z,29.80
2018-10-01T13:38:28.081Z,30.60
2018-10-01T13:40:56.578Z,30.47
2018-10-01T13:43:24.937Z,28.50
2018-10-01T13:45:53.406Z,27.50
2018-10-01T13:48:22.005Z,26.30
2018-10-01T13:50:50.503Z,26.17
2018-10-01T13:53:18.930Z,25.63
2018-10-01T13:55:47.412Z,26.20
2018-10-01T13:58:15.807Z,25.60
2018-10-01T14:00:44.122Z,24.27
2018-10-01T14:03:12.514Z,23.70
2018-10-01T14:05:40.826Z,23.93
2018-10-01T14:08:09.175Z,24.33
2018-10-01T14:10:37.578Z,24.77
2018-10-01T14:13:06.129Z,24.60
2018-10-01T14:15:34.451Z,24.10
2018-10-01T14:18:03.067Z,24.23
2018-10-01T14:20:31.388Z,24.90
2018-10-01T14:22:59.786Z,23.07
2018-10-01T14:25:29.290Z,24.20
2018-10-01T14:27:57.558Z,23.67
2018-10-01T14:30:26.045Z,23.57
2018-10-01T14:32:54.318Z,22.73
2018-10-01T14:35:22.762Z,23.37
2018-10-01T14:37:51.074Z,22.97
2018-10-01T14:40:19.454Z,23.47
2018-10-01T14:42:48.027Z,22.83
2018-10-01T14:45:16.604Z,23.70
2018-10-01T14:47:45.013Z,24.17
2018-10-01T14:50:13.418Z,22.10
2018-10-01T14:52:41.774Z,22.70
2018-10-01T14:55:10.204Z,24.97
2018-10-01T14:57:38.586Z,22.63
2018-10-01T15:00:06.986Z,22.33
2018-10-01T15:02:35.354Z,22.90
2018-10-01T15:05:03.814Z,23.60
2018-10-01T15:07:32.150Z,22.87
2018-10-01T15:10:00.506Z,22.70
2018-10-01T15:12:28.932Z,22.63
2018-10-01T15:14:57.349Z,22.67
2018-10-01T15:17:25.785Z,21.60
2018-10-01T15:19:54.166Z,21.60
2018-10-01T15:22:22.579Z,21.53
2018-10-01T15:24:50.925Z,20.00
2018-10-01T15:27:19.300Z,19.87
2018-10-01T15:29:47.687Z,19.20
2018-10-01T15:32:16.055Z,22.90
2018-10-01T15:34:44.419Z,20.03
2018-10-01T15:37:12.814Z,19.20
2018-10-01T15:39:41.158Z,19.10
2018-10-01T15:42:09.607Z,18.97
2018-10-01T15:44:37.980Z,19.07
2018-10-01T15:47:06.402Z,18.60
2018-10-01T15:49:34.822Z,19.13
2018-10-01T15:52:03.150Z,18.80
2018-10-01T15:54:31.575Z,19.50
2018-10-01T15:56:59.990Z,19.60
2018-10-01T15:59:28.417Z,19.30
2018-10-01T16:01:56.830Z,20.63
2018-10-01T16:04:27.244Z,18.33
2018-10-01T16:06:55.652Z,18.97
2018-10-01T16:09:24.032Z,18.60
2018-10-01T16:11:52.350Z,18.10
2018-10-01T16:14:20.817Z,19.30
2018-10-01T16:16:49.298Z,19.03
2018-10-01T16:19:17.719Z,18.33
2018-10-01T16:21:46.091Z,19.77
2018-10-01T16:24:15.534Z,18.80
2018-10-01T16:26:43.998Z,19.47
2018-10-01T16:29:12.350Z,18.50
2018-10-01T16:31:40.707Z,18.50
2018-10-01T16:34:09.129Z,18.80
2018-10-01T16:36:37.538Z,20.53
2018-10-01T16:39:09.183Z,19.43
2018-10-01T16:41:37.588Z,23.50
2018-10-01T16:44:06.255Z,19.03
2018-10-01T16:46:34.622Z,18.73
2018-10-01T16:49:03.277Z,19.50
2018-10-01T16:51:31.798Z,19.17
2018-10-01T16:54:00.598Z,19.20
2018-10-01T16:56:29.284Z,18.50
2018-10-01T16:58:57.701Z,19.90
2018-10-01T17:01:26.098Z,18.67
2018-10-01T17:03:54.462Z,19.80
2018-10-01T17:06:27.873Z,19.17
2018-10-01T17:08:57.706Z,19.00
2018-10-01T17:11:26.098Z,19.07
2018-10-01T17:13:55.467Z,18.70
2018-10-01T17:16:23.832Z,21.40
2018-10-01T17:18:52.300Z,20.17
2018-10-01T17:21:20.751Z,19.40
2018-10-01T17:23:49.107Z,19.20
2018-10-01T17:26:17.430Z,19.33
2018-10-01T17:28:46.023Z,20.07
2018-10-01T17:31:16.422Z,20.07
2018-10-01T17:33:44.867Z,18.23
2018-10-01T17:36:13.214Z,20.03
2018-10-01T17:38:42.647Z,20.00
2018-10-01T17:41:11.100Z,20.40
2018-10-01T17:43:39.562Z,19.73
2018-10-01T17:46:08.091Z,19.70
2018-10-01T17:48:36.471Z,20.00
2018-10-01T17:51:05.450Z,19.50
2018-10-01T17:53:33.830Z,19.97
2018-10-01T17:56:02.873Z,19.30
2018-10-01T17:58:31.265Z,19.90
2018-10-01T18:00:59.614Z,19.70
2018-10-01T18:03:27.990Z,19.53
2018-10-01T18:05:56.442Z,19.87
2018-10-01T18:08:25.211Z,20.77
2018-10-01T18:10:53.634Z,20.73
2018-10-01T18:13:22.434Z,19.83
2018-10-01T18:15:50.862Z,19.40
2018-10-01T18:18:19.453Z,20.13
2018-10-01T18:20:47.957Z,20.30
2018-10-01T18:23:16.439Z,20.23
2018-10-01T18:25:44.806Z,20.90
2018-10-01T18:28:13.210Z,20.50
2018-10-01T18:30:41.633Z,18.83
2018-10-01T18:33:10.135Z,20.20
2018-10-01T18:35:38.590Z,20.10
2018-10-01T18:38:07.359Z,19.40
2018-10-01T18:40:35.766Z,20.10
2018-10-01T18:43:04.186Z,20.70
2018-10-01T18:45:32.613Z,19.90
2018-10-01T18:48:01.141Z,20.03
2018-10-01T18:50:29.512Z,19.63
2018-10-01T18:52:57.984Z,20.73
2018-10-01T18:55:26.400Z,19.60
2018-10-01T18:57:54.786Z,19.80
2018-10-01T19:00:23.139Z,20.23
2018-10-01T19:02:51.539Z,20.60
2018-10-01T19:05:19.919Z,19.90
2018-10-01T19:07:48.365Z,20.20
2018-10-01T19:10:16.906Z,20.03
2018-10-01T19:12:45.234Z,20.30
2018-10-01T19:15:13.695Z,19.67
2018-10-01T19:17:42.026Z,19.83
2018-10-01T19:20:10.372Z,19.20
2018-10-01T19:22:38.783Z,20.90
2018-10-01T19:25:07.154Z,20.13
2018-10-01T19:27:35.525Z,19.23
2018-10-01T19:30:04.010Z,18.83
2018-10-01T19:32:33.280Z,19.53
2018-10-01T19:35:01.737Z,19.33
2018-10-01T19:37:30.260Z,18.70
2018-10-01T19:39:58.654Z,19.90
2018-10-01T19:42:27.179Z,18.70
2018-10-01T19:44:55.690Z,20.43
2018-10-01T19:47:24.405Z,20.20
2018-10-01T19:51:23.417Z,19.10
2018-10-01T19:53:51.929Z,18.33
2018-10-01T19:56:20.254Z,18.20
2018-10-01T19:58:48.668Z,18.70
2018-10-01T20:01:16.995Z,18.20
2018-10-01T20:03:45.376Z,17.80
2018-10-01T20:06:13.951Z,17.90
2018-10-01T20:08:42.391Z,18.60
2018-10-01T20:11:11.121Z,18.30
2018-10-01T20:13:39.747Z,18.77
2018-10-01T20:16:08.332Z,17.77
2018-10-01T20:18:36.631Z,18.70
2018-10-01T20:21:05.163Z,18.30
2018-10-01T20:23:33.672Z,18.03
2018-10-01T20:26:02.367Z,18.57
2018-10-01T20:28:30.975Z,18.20
2018-10-01T20:31:00.363Z,17.83
2018-10-01T20:33:28.770Z,17.80
2018-10-01T20:35:58.001Z,18.00
2018-10-01T20:38:26.549Z,18.60
2018-10-01T20:40:55.057Z,17.30
2018-10-01T20:43:23.433Z,17.87
2018-10-01T20:45:52.027Z,18.20
2018-10-01T20:48:20.592Z,17.93
2018-10-01T20:50:49.059Z,17.90
2018-10-01T20:53:17.607Z,17.90
2018-10-01T20:55:46.079Z,17.90
2018-10-01T20:58:14.636Z,17.83
2018-10-01T21:00:43.237Z,17.90
2018-10-01T21:03:11.624Z,17.87
2018-10-01T21:05:41.034Z,18.10
2018-10-01T21:08:09.715Z,17.57
2018-10-01T21:10:38.106Z,17.67
2018-10-01T21:13:06.540Z,18.43
2018-10-01T21:15:35.096Z,17.90
2018-10-01T21:18:03.512Z,18.60
2018-10-01T21:20:31.899Z,18.30
2018-10-01T21:23:00.294Z,17.97
2018-10-01T21:25:28.647Z,17.97
2018-10-01T21:27:58.122Z,18.10
2018-10-01T21:30:26.614Z,17.57
2018-10-01T21:32:55.162Z,17.43
2018-10-01T21:35:23.567Z,18.10
2018-10-01T21:37:52.021Z,18.17
2018-10-01T21:40:20.455Z,18.23
2018-10-01T21:42:48.878Z,18.03
2018-10-01T21:45:18.063Z,17.40
2018-10-01T21:47:46.375Z,17.00
2018-10-01T21:52:54.653Z,17.63
2018-10-01T21:55:23.007Z,17.10
2018-10-01T21:57:51.386Z,17.93
2018-10-01T22:00:19.730Z,18.07
2018-10-01T22:02:48.147Z,17.53
2018-10-01T22:05:16.486Z,18.10
2018-10-01T22:07:44.896Z,18.00
2018-10-01T22:10:13.279Z,17.83
2018-10-01T22:12:41.646Z,17.93
2018-10-01T22:15:10.010Z,17.20
2018-10-01T22:17:38.435Z,17.20
2018-10-01T22:20:06.815Z,18.20
2018-10-01T22:22:35.162Z,16.90
2018-10-01T22:25:03.562Z,17.90
2018-10-01T22:27:31.923Z,18.37
2018-10-01T22:30:00.312Z,17.33
2018-10-01T22:32:28.660Z,16.60
2018-10-01T22:34:57.062Z,17.73
2018-10-01T22:37:25.426Z,17.50
2018-10-01T22:39:53.852Z,17.60
2018-10-01T22:42:22.202Z,18.17
2018-10-01T22:44:50.558Z,18.53
2018-10-01T22:47:18.962Z,17.67
2018-10-01T22:49:47.313Z,17.40
2018-10-01T22:52:15.726Z,17.57
2018-10-01T22:54:44.055Z,18.83
2018-10-01T22:57:12.474Z,18.53
2018-10-01T22:59:40.842Z,18.30
2018-10-01T23:02:09.232Z,18.77
2018-10-01T23:04:37.631Z,17.93
2018-10-01T23:07:05.988Z,18.90
2018-10-01T23:09:34.346Z,18.60
2018-10-01T23:12:02.742Z,18.60
2018-10-01T23:14:31.141Z,18.40
2018-10-01T23:16:59.486Z,18.70
2018-10-01T23:19:27.881Z,19.03
2018-10-01T23:21:56.262Z,18.03
2018-10-01T23:24:24.646Z,18.43
2018-10-01T23:26:53.061Z,18.30
2018-10-01T23:29:21.409Z,18.73
2018-10-01T23:31:49.735Z,18.23
2018-10-01T23:34:18.049Z,17.90
2018-10-01T23:36:47.238Z,17.97
2018-10-01T23:39:15.626Z,18.03
2018-10-01T23:41:43.994Z,17.90
2018-10-01T23:44:12.373Z,17.73
2018-10-01T23:46:40.753Z,18.63
2018-10-01T23:49:09.138Z,17.73
2018-10-01T23:51:38.572Z,19.00
2018-10-01T23:54:06.944Z,18.47
2018-10-01T23:56:35.329Z,18.60
2018-10-01T23:59:03.673Z,18.50
